Time;durP1;ratioP1;P1;durP2;ratioP2;P2;SDS_P1;SDS_P2;PMS_P1;PMS_P2;Temp;Humidity;BMP_temperature;BMP_pressure;BME280_temperature;BME280_humidity;BME280_pressure;Samples;Min_cycle;Max_cycle;Signal;HPM_P1;HPM_P2
2021/06/17 00:00:17;;;;;;;4.33;4.03;;;21.10;96.80;;;;;;5093577;28;20166;-75
2021/06/17 00:02:43;;;;;;;4.83;4.27;;;21.00;97.10;;;;;;5093557;28;20650;-75
2021/06/17 00:05:11;;;;;;;3.83;3.50;;;21.00;97.40;;;;;;5093546;28;20716;-75
2021/06/17 00:07:37;;;;;;;5.00;4.17;;;21.00;97.80;;;;;;5093471;28;20401;-75
2021/06/17 00:10:12;;;;;;;5.10;3.77;;;21.00;98.20;;;;;;5093582;28;20892;-75
2021/06/17 00:12:38;;;;;;;4.53;3.77;;;20.90;98.50;;;;;;5094407;28;20573;-76
2021/06/17 00:15:07;;;;;;;6.57;4.63;;;20.90;98.90;;;;;;5093825;28;20412;-75
2021/06/17 00:17:32;;;;;;;4.50;4.10;;;20.90;99.30;;;;;;5093020;28;20727;-76
2021/06/17 00:19:58;;;;;;;4.43;3.70;;;20.80;99.60;;;;;;5093498;28;20417;-76
2021/06/17 00:22:23;;;;;;;4.87;4.47;;;20.80;99.90;;;;;;5093483;28;20191;-75
2021/06/17 00:24:49;;;;;;;4.80;4.40;;;20.80;99.90;;;;;;5093005;28;20173;-74
2021/06/17 00:27:14;;;;;;;5.30;4.80;;;20.80;99.90;;;;;;5092875;28;20173;-76
2021/06/17 00:29:40;;;;;;;4.33;3.93;;;20.80;99.90;;;;;;5093015;28;20171;-76
2021/06/17 00:32:06;;;;;;;6.40;4.20;;;20.70;99.90;;;;;;5093007;28;20686;-76
2021/06/17 00:34:31;;;;;;;4.17;3.80;;;20.70;99.90;;;;;;5092871;28;20223;-75
2021/06/17 00:36:57;;;;;;;8.73;4.80;;;20.70;99.90;;;;;;5092802;28;20540;-76
2021/06/17 00:39:22;;;;;;;5.20;4.70;;;20.70;99.90;;;;;;5092837;28;20176;-75
2021/06/17 00:41:48;;;;;;;5.50;5.10;;;20.70;99.90;;;;;;5092846;28;20243;-76
2021/06/17 00:44:13;;;;;;;6.83;4.77;;;20.60;99.90;;;;;;5092748;28;20174;-76
2021/06/17 00:46:39;;;;;;;5.37;4.90;;;20.60;99.90;;;;;;5092937;28;20244;-77
2021/06/17 00:49:06;;;;;;;6.60;4.23;;;20.50;99.90;;;;;;5093001;28;20542;-75
2021/06/17 00:51:32;;;;;;;9.00;4.67;;;20.50;99.90;;;;;;5092619;28;20219;-76
2021/06/17 00:53:57;;;;;;;6.70;4.93;;;20.50;99.90;;;;;;5074687;28;20504;-75
2021/06/17 00:56:23;;;;;;;5.67;5.17;;;20.50;99.90;;;;;;5092694;28;20414;-75
2021/06/17 00:58:51;;;;;;;4.73;4.40;;;20.50;99.90;;;;;;5093064;28;20165;-76
2021/06/17 01:01:16;;;;;;;5.90;5.17;;;20.40;99.90;;;;;;5092976;28;20492;-76
2021/06/17 01:03:42;;;;;;;5.20;4.70;;;20.40;99.90;;;;;;5092574;28;20785;-75
2021/06/17 01:06:08;;;;;;;5.50;5.00;;;20.40;99.90;;;;;;5074499;28;20188;-75
2021/06/17 01:08:45;;;;;;;8.60;5.87;;;20.40;99.90;;;;;;5092472;28;20196;-75
2021/06/17 01:11:51;;;;;;;7.70;4.77;;;20.40;99.90;;;;;;5091403;28;20200;-75
2021/06/17 01:14:23;;;;;;;5.43;4.80;;;20.30;99.90;;;;;;5092259;28;20408;-75
2021/06/17 01:16:58;;;;;;;7.73;5.27;;;20.30;99.90;;;;;;5092030;28;20456;-75
2021/06/17 01:19:30;;;;;;;7.30;5.33;;;20.30;99.90;;;;;;5092464;28;20413;-76
2021/06/17 01:21:58;;;;;;;6.27;5.70;;;20.30;99.90;;;;;;5092582;28;20941;-75
2021/06/17 01:24:45;;;;;;;6.33;5.70;;;20.30;99.90;;;;;;5092120;28;20530;-76
2021/06/17 01:27:54;;;;;;;7.33;6.60;;;20.30;99.90;;;;;;5092324;28;20410;-76
2021/06/17 01:30:21;;;;;;;6.20;5.60;;;20.20;99.90;;;;;;5092234;28;20415;-76
2021/06/17 01:32:52;;;;;;;8.70;6.50;;;20.20;99.90;;;;;;5092838;28;20410;-76
2021/06/17 01:35:20;;;;;;;6.43;5.27;;;20.20;99.90;;;;;;5074226;28;20407;-76
2021/06/17 01:37:47;;;;;;;6.47;5.87;;;20.20;99.90;;;;;;5092194;28;20504;-75
2021/06/17 01:40:14;;;;;;;6.60;5.97;;;20.20;99.90;;;;;;5092330;28;20406;-76
2021/06/17 01:42:42;;;;;;;9.33;7.13;;;20.20;99.90;;;;;;5091825;28;20424;-73
2021/06/17 01:45:08;;;;;;;11.20;7.53;;;20.20;99.90;;;;;;5092027;28;20406;-75
2021/06/17 01:47:36;;;;;;;8.70;7.90;;;20.20;99.90;;;;;;5091754;28;20495;-75
2021/06/17 01:50:02;;;;;;;7.10;5.90;;;20.20;99.90;;;;;;5091777;28;20415;-75
2021/06/17 01:52:30;;;;;;;9.40;6.43;;;20.10;99.90;;;;;;5094906;28;20433;-75
2021/06/17 01:54:57;;;;;;;7.73;7.00;;;20.10;99.90;;;;;;5097019;28;20447;-75
2021/06/17 01:57:25;;;;;;;7.50;6.90;;;20.10;99.90;;;;;;5078347;28;20453;-76
2021/06/17 01:59:52;;;;;;;8.00;7.30;;;20.10;99.90;;;;;;5097172;28;20406;-76
2021/06/17 02:02:18;;;;;;;7.33;6.63;;;20.10;99.90;;;;;;5098490;28;20422;-74
2021/06/17 02:04:47;;;;;;;8.37;7.47;;;20.00;99.90;;;;;;5097885;28;20406;-75
2021/06/17 02:07:14;;;;;;;8.30;7.50;;;20.10;99.90;;;;;;5078288;28;20437;-75
2021/06/17 02:09:40;;;;;;;11.67;6.50;;;20.00;99.90;;;;;;5096317;28;20924;-76
2021/06/17 02:12:06;;;;;;;7.10;6.20;;;20.00;99.90;;;;;;5078761;28;20466;-76
2021/06/17 02:14:33;;;;;;;7.73;7.00;;;20.00;99.90;;;;;;5077178;28;21006;-75
2021/06/17 02:17:01;;;;;;;9.57;7.80;;;19.90;99.90;;;;;;5091048;28;21084;-74
2021/06/17 02:19:29;;;;;;;8.57;7.67;;;19.90;99.90;;;;;;5091573;28;20399;-74
2021/06/17 02:21:58;;;;;;;8.30;7.50;;;19.90;99.90;;;;;;5073274;28;20431;-74
2021/06/17 02:24:25;;;;;;;8.30;7.57;;;19.90;99.90;;;;;;5091254;28;20396;-76
2021/06/17 02:26:56;;;;;;;8.83;7.90;;;19.80;99.90;;;;;;5091406;28;20415;-75
2021/06/17 02:29:22;;;;;;;9.23;7.20;;;19.90;99.90;;;;;;5072702;28;20872;-75
2021/06/17 02:31:50;;;;;;;12.07;7.43;;;19.80;99.90;;;;;;5090975;28;20434;-75
2021/06/17 02:34:18;;;;;;;10.20;8.23;;;19.80;99.90;;;;;;5091092;28;20411;-75
2021/06/17 02:36:46;;;;;;;8.33;7.47;;;19.80;99.90;;;;;;5090873;28;20893;-76
2021/06/17 02:39:20;;;;;;;9.03;7.93;;;19.70;99.90;;;;;;5090923;28;20422;-75
2021/06/17 02:41:50;;;;;;;8.37;7.60;;;19.80;99.90;;;;;;5093068;28;20419;-75
2021/06/17 02:44:16;;;;;;;8.90;8.00;;;19.80;99.90;;;;;;5095313;28;20447;-74
2021/06/17 02:46:43;;;;;;;8.87;8.13;;;19.70;99.90;;;;;;5095013;28;20490;-74
2021/06/17 02:49:08;;;;;;;9.80;8.90;;;19.70;99.90;;;;;;5094912;28;20427;-75
2021/06/17 02:51:35;;;;;;;10.10;9.23;;;19.70;99.90;;;;;;5094683;28;20427;-75
2021/06/17 02:54:01;;;;;;;9.27;8.37;;;19.80;99.90;;;;;;5094891;28;20169;-74
2021/06/17 02:56:40;;;;;;;9.47;8.57;;;19.70;99.90;;;;;;5094375;28;20405;-74
2021/06/17 02:59:40;;;;;;;8.60;7.80;;;19.60;99.90;;;;;;5094702;28;20406;-74
2021/06/17 03:02:13;;;;;;;9.17;8.20;;;19.60;99.90;;;;;;5094826;28;20418;-74
2021/06/17 03:04:49;;;;;;;10.30;9.30;;;19.60;99.90;;;;;;5094540;28;20452;-74
2021/06/17 03:07:24;;;;;;;11.47;10.27;;;19.60;99.90;;;;;;5094254;28;20488;-75
2021/06/17 03:10:06;;;;;;;10.33;8.97;;;19.60;99.90;;;;;;5094537;28;20411;-75
2021/06/17 03:12:33;;;;;;;10.20;9.20;;;19.60;99.90;;;;;;5076019;28;20800;-74
2021/06/17 03:15:01;;;;;;;10.30;9.37;;;19.70;99.90;;;;;;5094477;28;20410;-75
2021/06/17 03:17:28;;;;;;;11.13;10.00;;;19.60;99.90;;;;;;5094080;28;20447;-75
2021/06/17 03:19:56;;;;;;;9.23;8.20;;;19.70;99.90;;;;;;5094325;28;20494;-75
2021/06/17 03:22:27;;;;;;;10.63;9.67;;;19.60;99.90;;;;;;5094275;28;20431;-75
2021/06/17 03:24:57;;;;;;;9.93;9.13;;;19.70;99.90;;;;;;5094374;28;20452;-75
2021/06/17 03:27:24;;;;;;;10.10;9.10;;;19.70;99.90;;;;;;5094074;28;20784;-75
2021/06/17 03:29:51;;;;;;;9.90;9.00;;;19.70;99.90;;;;;;5093876;28;20412;-75
2021/06/17 03:32:18;;;;;;;10.63;9.40;;;19.80;99.90;;;;;;5093939;28;20466;-75
2021/06/17 03:34:45;;;;;;;12.60;9.50;;;19.80;99.90;;;;;;5094068;28;20407;-75
2021/06/17 03:37:14;;;;;;;11.00;10.00;;;19.80;99.90;;;;;;5095442;28;20561;-75
2021/06/17 03:39:42;;;;;;;13.93;10.30;;;19.90;99.90;;;;;;5099172;28;20433;-75
2021/06/17 03:42:09;;;;;;;14.60;10.60;;;19.90;99.90;;;;;;5097956;28;20431;-74
2021/06/17 03:44:36;;;;;;;10.40;9.37;;;19.90;99.90;;;;;;5097694;28;20428;-75
2021/06/17 03:47:03;;;;;;;10.53;9.60;;;19.90;99.90;;;;;;5093792;28;20461;-75
2021/06/17 03:49:30;;;;;;;11.47;10.27;;;19.90;99.90;;;;;;5093788;28;20403;-76
2021/06/17 03:51:57;;;;;;;10.70;9.37;;;19.90;99.90;;;;;;5093175;28;20445;-75
2021/06/17 03:54:25;;;;;;;11.67;10.63;;;20.00;99.90;;;;;;5092983;28;20969;-75
2021/06/17 03:56:57;;;;;;;11.10;10.10;;;20.00;99.90;;;;;;5093346;28;20543;-74
2021/06/17 03:59:26;;;;;;;13.90;10.97;;;20.00;99.90;;;;;;5093518;28;20403;-75
2021/06/17 04:01:52;;;;;;;13.50;10.80;;;20.10;99.90;;;;;;5093321;28;20420;-75
2021/06/17 04:04:18;;;;;;;12.33;11.00;;;20.10;99.90;;;;;;5093416;28;20893;-75
2021/06/17 04:06:50;;;;;;;12.90;10.57;;;20.20;99.90;;;;;;5093174;28;20428;-75
2021/06/17 04:09:27;;;;;;;11.60;10.50;;;20.30;99.90;;;;;;5093781;28;20404;-76
2021/06/17 04:11:55;;;;;;;10.43;9.43;;;20.40;99.90;;;;;;5093820;28;20424;-76
2021/06/17 04:14:22;;;;;;;12.07;10.90;;;20.50;99.90;;;;;;5093442;28;20499;-76
2021/06/17 04:16:51;;;;;;;10.30;9.30;;;20.90;99.90;;;;;;5093025;28;21285;-76
2021/06/17 04:19:19;;;;;;;9.93;9.13;;;21.60;99.90;;;;;;5093264;28;20404;-75
2021/06/17 04:21:45;;;;;;;11.53;8.87;;;22.40;99.90;;;;;;5093068;28;20420;-76
2021/06/17 04:24:13;;;;;;;10.70;9.70;;;22.90;99.90;;;;;;5093023;28;20406;-76
2021/06/17 04:26:38;;;;;;;11.70;10.00;;;23.50;99.90;;;;;;5092846;28;20424;-75
2021/06/17 04:29:04;;;;;;;9.53;8.57;;;23.70;99.90;;;;;;5092924;28;20412;-74
2021/06/17 04:31:30;;;;;;;10.57;9.30;;;23.70;99.90;;;;;;5092726;28;20585;-74
2021/06/17 04:33:56;;;;;;;11.60;9.87;;;23.80;99.90;;;;;;5092827;28;20179;-74
2021/06/17 04:36:21;;;;;;;8.80;8.00;;;23.70;99.90;;;;;;5093054;28;20493;-74
2021/06/17 04:38:48;;;;;;;10.17;9.27;;;23.70;99.90;;;;;;5092590;28;20712;-76
2021/06/17 04:41:14;;;;;;;10.60;9.10;;;23.90;99.90;;;;;;5092587;28;20197;-75
2021/06/17 04:43:40;;;;;;;11.00;8.93;;;23.80;99.90;;;;;;5092555;28;20424;-76
2021/06/17 04:46:06;;;;;;;9.87;9.00;;;23.80;99.90;;;;;;5092465;28;20409;-74
2021/06/17 04:48:34;;;;;;;9.93;9.00;;;24.20;99.90;;;;;;5092580;28;20175;-74
2021/06/17 04:51:01;;;;;;;11.63;10.63;;;23.80;99.90;;;;;;5092229;28;20430;-74
2021/06/17 04:53:29;;;;;;;10.50;9.50;;;23.40;99.90;;;;;;5093025;28;20805;-74
2021/06/17 04:55:55;;;;;;;10.60;9.70;;;23.40;99.90;;;;;;5092344;28;20445;-75
2021/06/17 04:58:23;;;;;;;12.07;9.57;;;23.50;99.90;;;;;;5092196;28;20480;-75
2021/06/17 05:00:48;;;;;;;12.90;9.57;;;23.70;99.90;;;;;;5092333;28;20891;-76
2021/06/17 05:03:15;;;;;;;10.90;9.67;;;23.90;99.90;;;;;;5092166;28;20525;-74
2021/06/17 05:05:41;;;;;;;16.20;9.33;;;24.00;99.90;;;;;;5091782;28;20196;-73
2021/06/17 05:10:52;;;;;;;9.93;8.90;;;24.40;99.90;;;;;;5092240;28;20247;-75
2021/06/17 05:13:23;;;;;;;10.43;9.53;;;25.20;99.90;;;;;;5092104;28;20410;-75
2021/06/17 05:15:49;;;;;;;10.07;9.10;;;24.10;99.90;;;;;;5073676;28;20961;-75
2021/06/17 05:18:16;;;;;;;10.40;9.40;;;24.70;99.90;;;;;;5091679;28;20501;-74
2021/06/17 05:20:42;;;;;;;12.50;10.40;;;24.70;99.90;;;;;;5091858;28;20436;-75
2021/06/17 05:23:18;;;;;;;10.30;9.33;;;25.20;99.90;;;;;;5073710;28;20436;-75
2021/06/17 05:25:44;;;;;;;10.13;9.13;;;25.10;99.90;;;;;;5091875;28;20203;-75
2021/06/17 05:28:13;;;;;;;9.73;8.83;;;25.50;99.90;;;;;;5091657;28;20418;-74
2021/06/17 05:30:40;;;;;;;10.47;9.57;;;26.30;99.90;;;;;;5091472;28;20800;-74
2021/06/17 05:33:06;;;;;;;9.93;8.87;;;26.30;99.90;;;;;;5091640;28;20411;-74
2021/06/17 05:35:31;;;;;;;10.27;9.10;;;26.50;99.90;;;;;;5091821;28;20884;-75
2021/06/17 05:37:57;;;;;;;10.30;9.50;;;26.30;99.90;;;;;;5091401;28;20254;-75
2021/06/17 05:40:22;;;;;;;11.50;9.73;;;26.10;99.90;;;;;;5091673;28;20189;-76
2021/06/17 05:42:48;;;;;;;9.90;8.90;;;26.10;99.90;;;;;;5073422;28;20176;-76
2021/06/17 05:45:14;;;;;;;12.10;10.10;;;26.60;99.90;;;;;;5091342;28;20197;-76
2021/06/17 05:47:39;;;;;;;10.10;9.20;;;26.70;99.90;;;;;;5091291;28;20223;-78
2021/06/17 05:50:05;;;;;;;10.50;9.60;;;26.90;99.90;;;;;;5091369;28;20199;-75
2021/06/17 05:52:31;;;;;;;10.00;9.00;;;27.20;99.90;;;;;;5091460;28;20188;-75
2021/06/17 05:54:56;;;;;;;12.13;9.27;;;27.40;99.90;;;;;;5091309;28;20980;-75
2021/06/17 05:57:22;;;;;;;9.70;9.00;;;28.00;99.90;;;;;;5091479;28;20213;-75
2021/06/17 05:59:47;;;;;;;10.17;9.20;;;27.90;99.90;;;;;;5091190;28;20193;-75
2021/06/17 06:02:14;;;;;;;10.00;8.67;;;28.00;99.90;;;;;;5091137;28;20220;-76
2021/06/17 06:04:39;;;;;;;10.60;9.40;;;28.10;99.90;;;;;;5091085;28;20172;-75
2021/06/17 06:07:05;;;;;;;10.67;9.53;;;28.30;99.90;;;;;;5090969;28;20439;-75
2021/06/17 06:09:30;;;;;;;10.93;9.60;;;28.30;99.90;;;;;;5091242;28;20532;-75
2021/06/17 06:11:56;;;;;;;12.13;10.90;;;28.30;99.90;;;;;;5091177;28;20640;-76
2021/06/17 06:14:21;;;;;;;9.63;8.73;;;27.90;99.90;;;;;;5090949;28;20173;-75
2021/06/17 06:16:47;;;;;;;12.47;10.10;;;28.20;99.90;;;;;;5090316;28;20633;-75
2021/06/17 06:19:13;;;;;;;11.53;9.33;;;28.30;99.90;;;;;;5091063;28;20164;-75
2021/06/17 06:21:38;;;;;;;10.70;9.37;;;28.90;99.90;;;;;;5090759;28;20850;-75
2021/06/17 06:24:04;;;;;;;10.93;9.93;;;28.70;99.90;;;;;;5090817;28;20165;-75
2021/06/17 06:26:29;;;;;;;11.33;8.07;;;29.10;99.90;;;;;;5090908;28;20195;-76
2021/06/17 06:28:55;;;;;;;9.00;8.20;;;28.60;99.90;;;;;;5090685;28;20195;-73
2021/06/17 06:31:20;;;;;;;12.33;9.80;;;29.20;99.70;;;;;;5072789;28;20280;-75
2021/06/17 06:33:46;;;;;;;11.93;8.97;;;29.00;99.20;;;;;;5090949;28;20170;-74
2021/06/17 06:36:11;;;;;;;10.80;8.97;;;28.50;99.80;;;;;;5090897;28;20188;-74
2021/06/17 06:38:37;;;;;;;12.27;9.20;;;29.40;99.30;;;;;;5090738;28;20527;-75
2021/06/17 06:41:02;;;;;;;12.23;9.60;;;29.50;98.60;;;;;;5090653;28;20188;-74
2021/06/17 06:43:28;;;;;;;8.87;7.97;;;29.80;98.50;;;;;;5090715;28;20158;-74
2021/06/17 06:45:53;;;;;;;10.07;9.00;;;30.30;97.30;;;;;;5090949;28;20240;-74
2021/06/17 06:48:19;;;;;;;9.10;8.40;;;30.60;96.60;;;;;;5090810;28;20546;-75
2021/06/17 06:50:47;;;;;;;9.67;8.70;;;29.80;97.10;;;;;;5090864;28;20189;-74
2021/06/17 06:53:13;;;;;;;8.50;7.77;;;30.60;96.30;;;;;;5090715;28;20173;-74
2021/06/17 06:55:38;;;;;;;9.97;8.60;;;31.20;95.60;;;;;;5090668;28;20856;-75
2021/06/17 06:58:04;;;;;;;9.57;8.67;;;31.10;94.70;;;;;;5090031;28;20203;-75
2021/06/17 07:00:30;;;;;;;10.67;9.63;;;30.60;95.50;;;;;;5090444;28;20612;-74
2021/06/17 07:02:55;;;;;;;8.80;8.00;;;30.40;95.90;;;;;;5090484;28;20165;-73
2021/06/17 07:05:21;;;;;;;9.40;8.60;;;30.50;95.90;;;;;;5072558;28;20177;-74
2021/06/17 07:07:46;;;;;;;15.03;8.60;;;30.80;95.30;;;;;;5090728;28;20625;-73
2021/06/17 07:10:12;;;;;;;8.97;8.17;;;30.50;95.00;;;;;;5090810;28;20174;-75
2021/06/17 07:12:39;;;;;;;9.80;8.17;;;30.40;95.90;;;;;;5091273;28;20572;-75
2021/06/17 07:15:05;;;;;;;8.00;7.30;;;30.20;95.50;;;;;;5092054;28;20408;-74
2021/06/17 07:17:33;;;;;;;8.13;7.40;;;31.00;95.20;;;;;;5074152;28;20455;-74
2021/06/17 07:19:59;;;;;;;8.23;7.33;;;30.40;96.00;;;;;;5092860;28;20399;-74
2021/06/17 07:22:25;;;;;;;8.93;8.10;;;30.50;95.40;;;;;;5074329;28;20432;-75
2021/06/17 07:24:55;;;;;;;8.60;7.83;;;30.90;94.40;;;;;;5074984;28;20166;-74
2021/06/17 07:27:23;;;;;;;8.17;7.50;;;31.80;93.50;;;;;;5094418;28;20411;-76
2021/06/17 07:29:51;;;;;;;10.00;8.00;;;32.60;91.70;;;;;;5095895;28;20411;-77
2021/06/17 07:32:17;;;;;;;8.80;8.10;;;32.50;92.00;;;;;;5078470;28;20431;-77
2021/06/17 07:34:46;;;;;;;7.90;7.30;;;32.20;92.40;;;;;;5096936;28;20410;-77
2021/06/17 07:37:13;;;;;;;10.53;8.30;;;32.40;91.20;;;;;;5078686;28;20454;-74
2021/06/17 07:39:39;;;;;;;20.00;8.63;;;31.20;92.90;;;;;;5096384;28;20460;-75
2021/06/17 07:42:05;;;;;;;8.40;7.60;;;32.10;93.00;;;;;;5077508;28;20951;-75
2021/06/17 07:44:30;;;;;;;10.00;7.43;;;31.80;91.40;;;;;;5096365;28;20173;-75
2021/06/17 07:46:56;;;;;;;8.60;7.90;;;32.90;90.10;;;;;;5095646;28;20161;-74
2021/06/17 07:49:23;;;;;;;7.90;7.27;;;32.50;90.60;;;;;;5095951;28;20166;-75
2021/06/17 07:51:49;;;;;;;7.63;6.80;;;32.20;90.40;;;;;;5094185;28;20187;-75
2021/06/17 07:54:18;;;;;;;8.07;7.30;;;33.00;90.00;;;;;;5094040;28;20411;-74
2021/06/17 07:56:44;;;;;;;8.00;7.27;;;34.40;83.50;;;;;;5094089;28;20201;-74
2021/06/17 07:59:10;;;;;;;7.87;6.70;;;33.00;85.30;;;;;;5094302;28;20407;-74
2021/06/17 08:01:35;;;;;;;8.93;6.60;;;32.80;86.80;;;;;;5093701;28;20423;-75
2021/06/17 08:04:06;;;;;;;8.27;7.57;;;32.20;88.10;;;;;;5093909;28;20188;-75
2021/06/17 08:06:32;;;;;;;10.13;7.00;;;33.40;87.10;;;;;;5093782;28;20277;-75
2021/06/17 08:09:00;;;;;;;7.43;6.83;;;32.60;87.70;;;;;;5093792;28;20448;-75
2021/06/17 08:11:26;;;;;;;8.00;7.20;;;33.20;84.30;;;;;;5093717;28;20185;-75
2021/06/17 08:13:51;;;;;;;9.53;7.53;;;33.70;83.30;;;;;;5093972;28;20839;-74
2021/06/17 08:16:17;;;;;;;7.67;6.50;;;34.90;78.90;;;;;;5093646;28;20283;-75
2021/06/17 08:18:42;;;;;;;8.40;6.97;;;35.20;78.20;;;;;;5093523;28;20205;-73
2021/06/17 08:21:08;;;;;;;7.27;6.07;;;34.10;81.00;;;;;;5093561;28;20223;-74
2021/06/17 08:23:33;;;;;;;6.90;6.30;;;34.40;79.50;;;;;;5093468;28;20166;-74
2021/06/17 08:25:59;;;;;;;7.40;5.87;;;34.50;77.50;;;;;;5093447;28;20200;-74
2021/06/17 08:28:26;;;;;;;7.33;6.67;;;33.60;79.40;;;;;;5093520;28;20199;-75
2021/06/17 08:30:52;;;;;;;8.90;6.50;;;33.00;86.10;;;;;;5093374;28;20234;-75
2021/06/17 08:33:17;;;;;;;6.13;5.63;;;34.50;83.50;;;;;;5093332;28;20419;-75
2021/06/17 08:35:43;;;;;;;8.37;5.50;;;34.30;76.10;;;;;;5093424;28;20202;-75
2021/06/17 08:38:09;;;;;;;7.80;6.00;;;33.80;77.10;;;;;;5074888;28;20304;-75
2021/06/17 08:40:35;;;;;;;6.30;5.70;;;33.50;75.90;;;;;;5093379;28;20197;-75
2021/06/17 08:43:02;;;;;;;6.40;5.90;;;33.70;79.60;;;;;;5093540;28;20162;-77
2021/06/17 08:45:28;;;;;;;8.03;5.33;;;33.30;80.00;;;;;;5094199;28;20419;-76
2021/06/17 08:47:54;;;;;;;8.20;5.70;;;33.30;81.00;;;;;;5060795;28;20450;-74
2021/06/17 08:50:20;;;;;;;6.20;5.70;;;34.60;73.70;;;;;;5059417;28;20432;-75
2021/06/17 08:52:46;;;;;;;6.13;5.63;;;34.50;74.70;;;;;;5093852;28;20215;-77
2021/06/17 08:55:21;;;;;;;6.63;5.80;;;35.60;69.90;;;;;;5094055;28;20467;-75
2021/06/17 08:57:49;;;;;;;5.67;5.17;;;35.20;68.30;;;;;;5093118;28;20204;-75
2021/06/17 09:00:20;;;;;;;8.53;6.50;;;35.60;70.30;;;;;;5093624;28;20444;-79
2021/06/17 09:03:14;;;;;;;6.07;5.57;;;34.80;75.00;;;;;;5095341;28;20444;-76
2021/06/17 09:05:42;;;;;;;5.50;5.10;;;34.50;73.50;;;;;;5091154;28;20426;-77
2021/06/17 09:08:09;;;;;;;5.90;5.50;;;34.00;73.40;;;;;;5075874;28;20403;-74
2021/06/17 09:10:39;;;;;;;6.90;6.30;;;34.10;74.70;;;;;;5092844;28;20416;-75
2021/06/17 09:13:06;;;;;;;6.40;5.83;;;34.00;72.20;;;;;;5092654;28;20445;-75
2021/06/17 09:15:52;;;;;;;5.60;5.20;;;33.70;75.20;;;;;;5092710;28;20399;-75
2021/06/17 09:18:29;;;;;;;6.20;5.60;;;33.90;72.60;;;;;;5092719;28;20458;-76
2021/06/17 09:21:02;;;;;;;5.93;5.43;;;34.60;73.00;;;;;;5092509;28;20415;-75
2021/06/17 09:23:37;;;;;;;5.30;4.90;;;34.00;70.20;;;;;;5094365;28;20971;-76
2021/06/17 09:26:12;;;;;;;6.57;5.00;;;34.40;68.80;;;;;;5100828;28;20399;-75
2021/06/17 09:29:04;;;;;;;7.90;6.00;;;34.40;71.20;;;;;;5083460;28;20419;-74
2021/06/17 09:31:44;;;;;;;5.03;4.63;;;35.00;67.00;;;;;;5081118;28;20514;-77
2021/06/17 09:34:11;;;;;;;5.77;5.27;;;34.70;67.20;;;;;;5062917;28;20420;-75
2021/06/17 09:36:39;;;;;;;5.53;5.13;;;35.60;65.40;;;;;;5098422;28;20395;-75
2021/06/17 09:39:18;;;;;;;6.20;5.70;;;35.00;67.10;;;;;;5080721;28;20406;-73
2021/06/17 09:41:46;;;;;;;5.90;5.37;;;34.30;67.60;;;;;;5080601;28;21072;-76
2021/06/17 09:44:31;;;;;;;5.73;5.23;;;34.40;66.60;;;;;;5079824;28;20819;-76
2021/06/17 09:47:25;;;;;;;6.40;5.90;;;34.40;66.00;;;;;;5101185;28;20403;-76
2021/06/17 09:49:52;;;;;;;7.23;6.33;;;34.00;68.40;;;;;;5093540;28;20948;-77
2021/06/17 09:52:19;;;;;;;5.37;4.97;;;34.80;67.30;;;;;;5075135;28;20446;-75
2021/06/17 09:54:45;;;;;;;6.77;6.13;;;35.10;63.90;;;;;;5094696;28;20404;-76
2021/06/17 09:57:24;;;;;;;5.97;5.00;;;34.80;64.40;;;;;;5095458;28;20937;-75
2021/06/17 09:59:53;;;;;;;5.33;4.93;;;35.30;63.40;;;;;;5096489;28;20403;-74
2021/06/17 10:02:39;;;;;;;7.83;4.90;;;34.60;63.90;;;;;;5098122;28;20927;-75
2021/06/17 10:05:14;;;;;;;5.67;4.83;;;35.00;63.70;;;;;;5076974;28;20407;-75
2021/06/17 10:07:41;;;;;;;5.30;4.80;;;34.80;62.90;;;;;;5076650;28;20411;-76
2021/06/17 10:10:07;;;;;;;5.30;4.90;;;35.20;65.60;;;;;;5077465;28;20423;-76
2021/06/17 10:12:33;;;;;;;8.00;4.77;;;34.80;64.10;;;;;;5096821;28;20403;-76
2021/06/17 10:15:02;;;;;;;4.90;4.50;;;34.30;62.70;;;;;;5082076;28;20414;-75
2021/06/17 10:17:28;;;;;;;12.60;5.70;;;34.40;61.30;;;;;;5101818;28;20708;-77
2021/06/17 10:19:56;;;;;;;5.77;5.27;;;33.60;61.90;;;;;;5082752;28;20416;-76
2021/06/17 10:22:32;;;;;;;5.97;5.47;;;33.50;63.60;;;;;;5082363;28;20204;-76
2021/06/17 10:24:58;;;;;;;5.07;4.60;;;33.20;61.10;;;;;;5085492;28;20938;-77
2021/06/17 10:27:34;;;;;;;5.57;4.40;;;33.40;63.40;;;;;;5081301;28;20465;-76
2021/06/17 10:30:00;;;;;;;6.20;5.60;;;33.20;63.00;;;;;;5081414;28;20922;-76
2021/06/17 10:32:43;;;;;;;6.17;5.20;;;33.30;63.10;;;;;;5067161;28;20451;-77
2021/06/17 10:35:10;;;;;;;5.80;5.40;;;33.40;61.80;;;;;;5085128;28;20415;-76
2021/06/17 10:37:50;;;;;;;5.50;4.97;;;33.00;63.10;;;;;;5082330;28;20466;-77
2021/06/17 10:40:19;;;;;;;8.37;5.90;;;33.10;62.90;;;;;;5099238;28;20461;-77
2021/06/17 10:42:51;;;;;;;5.57;5.07;;;33.20;63.60;;;;;;5082758;28;20501;-76
2021/06/17 10:45:44;;;;;;;5.67;5.27;;;33.20;62.80;;;;;;5083186;28;20429;-76
2021/06/17 10:48:17;;;;;;;7.80;5.30;;;32.90;63.50;;;;;;5102864;28;20407;-77
2021/06/17 10:50:51;;;;;;;5.33;4.87;;;32.90;63.10;;;;;;5106909;28;20431;-76
2021/06/17 10:53:32;;;;;;;5.73;5.23;;;32.70;62.20;;;;;;5089550;28;20410;-76
2021/06/17 10:56:06;;;;;;;6.33;5.37;;;32.70;63.00;;;;;;5106831;28;20453;-76
2021/06/17 10:58:41;;;;;;;6.83;5.00;;;32.60;61.70;;;;;;5088852;28;20451;-77
2021/06/17 11:01:31;;;;;;;6.00;5.10;;;32.50;62.30;;;;;;5099969;28;20419;-77
2021/06/17 11:04:14;;;;;;;6.30;5.70;;;32.60;63.10;;;;;;5090146;28;20514;-77
2021/06/17 11:06:52;;;;;;;5.90;5.10;;;32.50;62.80;;;;;;5104657;28;20418;-75
2021/06/17 11:09:46;;;;;;;6.33;4.77;;;32.60;62.10;;;;;;5107836;28;20407;-76
2021/06/17 11:12:23;;;;;;;4.90;4.50;;;32.50;61.80;;;;;;5090115;28;20446;-75
2021/06/17 11:14:50;;;;;;;4.87;4.47;;;32.70;62.60;;;;;;5107221;28;20395;-76
2021/06/17 11:17:33;;;;;;;6.30;4.20;;;32.60;60.20;;;;;;5090188;28;20458;-78
2021/06/17 11:20:11;;;;;;;5.40;4.87;;;33.00;61.00;;;;;;5090269;28;20406;-77
2021/06/17 11:23:10;;;;;;;5.50;5.10;;;32.90;61.80;;;;;;5090604;28;20849;-77
2021/06/17 11:25:42;;;;;;;5.27;4.77;;;32.80;61.50;;;;;;5091402;28;20454;-74
2021/06/17 11:28:15;;;;;;;5.33;4.90;;;32.80;60.00;;;;;;5107574;28;20477;-75
2021/06/17 11:30:44;;;;;;;5.10;4.70;;;32.80;61.00;;;;;;5108814;28;20419;-77
2021/06/17 11:33:16;;;;;;;6.00;5.50;;;32.80;61.60;;;;;;5087519;28;20407;-76
2021/06/17 11:35:54;;;;;;;6.10;5.57;;;32.90;62.10;;;;;;5105921;28;20419;-76
2021/06/17 11:38:24;;;;;;;5.90;4.97;;;32.80;61.40;;;;;;5085495;28;20794;-75
2021/06/17 11:40:50;;;;;;;5.77;5.27;;;32.70;61.90;;;;;;5105077;28;20484;-76
2021/06/17 11:43:21;;;;;;;6.10;4.30;;;32.90;60.30;;;;;;5086694;28;20740;-75
2021/06/17 11:45:48;;;;;;;5.73;5.23;;;33.00;61.40;;;;;;5069518;28;20165;-76
2021/06/17 11:48:13;;;;;;;5.20;4.30;;;32.90;59.90;;;;;;5100418;28;20975;-77
2021/06/17 11:50:43;;;;;;;5.30;4.90;;;32.90;59.00;;;;;;5100766;28;20428;-76
2021/06/17 11:53:19;;;;;;;5.00;4.60;;;33.00;58.90;;;;;;5100371;28;20161;-77
2021/06/17 11:55:49;;;;;;;5.90;5.10;;;32.70;60.40;;;;;;5083458;28;20763;-76
2021/06/17 11:58:14;;;;;;;5.63;5.20;;;32.70;60.80;;;;;;5104762;28;20411;-76
2021/06/17 12:00:40;;;;;;;6.20;5.20;;;32.70;59.60;;;;;;5087102;28;20912;-76
2021/06/17 12:03:16;;;;;;;4.63;4.23;;;32.40;59.00;;;;;;5105566;28;20176;-76
2021/06/17 12:05:41;;;;;;;5.83;5.20;;;32.50;59.20;;;;;;5083108;28;20270;-76
2021/06/17 12:08:09;;;;;;;6.50;5.27;;;32.50;58.80;;;;;;5101945;28;21042;-77
2021/06/17 12:10:36;;;;;;;5.00;4.60;;;32.30;59.20;;;;;;5100960;28;20178;-77
2021/06/17 12:13:03;;;;;;;5.30;4.90;;;32.40;58.90;;;;;;5099626;28;20427;-77
2021/06/17 12:15:37;;;;;;;5.97;5.47;;;32.40;59.60;;;;;;5081028;28;20407;-76
2021/06/17 12:18:14;;;;;;;5.60;5.10;;;32.60;59.20;;;;;;5100583;28;20411;-75
2021/06/17 12:20:42;;;;;;;6.03;4.97;;;32.60;59.70;;;;;;5099530;28;20423;-76
2021/06/17 12:23:20;;;;;;;5.67;5.00;;;32.60;59.20;;;;;;5079880;28;20947;-77
2021/06/17 12:26:04;;;;;;;6.57;4.70;;;32.70;61.10;;;;;;5097354;28;20406;-76
2021/06/17 12:28:30;;;;;;;5.93;4.17;;;32.80;59.40;;;;;;5094096;28;20804;-75
2021/06/17 12:30:57;;;;;;;6.60;5.83;;;32.90;58.60;;;;;;5099605;28;20423;-78
2021/06/17 12:33:34;;;;;;;6.40;5.00;;;32.80;59.60;;;;;;5100695;28;20412;-76
2021/06/17 12:36:15;;;;;;;5.77;4.97;;;32.90;59.90;;;;;;5102316;28;20482;-77
2021/06/17 12:38:41;;;;;;;5.10;4.77;;;32.80;59.40;;;;;;5100881;28;20406;-76
2021/06/17 12:41:17;;;;;;;5.20;4.80;;;32.60;59.70;;;;;;5099895;28;20842;-76
2021/06/17 12:43:47;;;;;;;7.00;5.70;;;32.90;59.30;;;;;;5099305;28;20407;-77
2021/06/17 12:46:14;;;;;;;5.20;4.60;;;33.00;58.40;;;;;;5100106;28;20453;-74
2021/06/17 12:54:04;;;;;;;5.40;4.97;;;32.90;58.00;;;;;;5096838;28;20863;-77
2021/06/17 12:56:30;;;;;;;8.23;5.03;;;33.00;57.40;;;;;;5099131;28;20404;-76
2021/06/17 12:58:56;;;;;;;4.63;3.97;;;33.00;56.70;;;;;;5100991;28;20464;-76
2021/06/17 13:01:23;;;;;;;6.10;4.70;;;33.00;57.10;;;;;;5082350;28;20461;-76